sensor_id;sensor_type;location;lat;lon;timestamp;pressure;altitude;pressure_sealevel;temperature;humidity
77889;BME280;67082;41.704;44.768;2023-06-01T00:02:31;95416.22;;;19.33;60.26
77889;BME280;67082;41.704;44.768;2023-06-01T00:04:59;95416.00;;;19.25;60.10
77889;BME280;67082;41.704;44.768;2023-06-01T00:07:27;95426.22;;;19.28;59.67
77889;BME280;67082;41.704;44.768;2023-06-01T00:09:57;95427.50;;;19.27;59.72
77889;BME280;67082;41.704;44.768;2023-06-01T00:12:26;95427.75;;;19.29;59.64
77889;BME280;67082;41.704;44.768;2023-06-01T00:14:54;95432.56;;;19.18;60.49
77889;BME280;67082;41.704;44.768;2023-06-01T00:17:23;95422.41;;;19.09;60.61
77889;BME280;67082;41.704;44.768;2023-06-01T00:19:51;95419.59;;;19.09;60.89
77889;BME280;67082;41.704;44.768;2023-06-01T00:22:21;95422.13;;;19.07;61.07
77889;BME280;67082;41.704;44.768;2023-06-01T00:24:51;95433.38;;;19.07;60.98
77889;BME280;67082;41.704;44.768;2023-06-01T00:27:19;95412.97;;;18.90;61.61
77889;BME280;67082;41.704;44.768;2023-06-01T00:29:47;95428.28;;;19.00;61.44
77889;BME280;67082;41.704;44.768;2023-06-01T00:32:15;95417.06;;;18.89;61.79
77889;BME280;67082;41.704;44.768;2023-06-01T00:34:43;95426.00;;;18.93;61.85
77889;BME280;67082;41.704;44.768;2023-06-01T00:37:12;95425.47;;;18.95;61.77
77889;BME280;67082;41.704;44.768;2023-06-01T00:39:40;95415.00;;;18.95;61.89
77889;BME280;67082;41.704;44.768;2023-06-01T00:42:08;95423.94;;;18.94;61.87
77889;BME280;67082;41.704;44.768;2023-06-01T00:44:36;95423.19;;;18.93;61.89
77889;BME280;67082;41.704;44.768;2023-06-01T00:47:05;95431.59;;;18.88;61.39
77889;BME280;67082;41.704;44.768;2023-06-01T00:49:34;95430.34;;;18.83;62.00
77889;BME280;67082;41.704;44.768;2023-06-01T00:52:02;95429.06;;;18.84;61.89
77889;BME280;67082;41.704;44.768;2023-06-01T00:54:31;95431.34;;;18.80;62.17
77889;BME280;67082;41.704;44.768;2023-06-01T00:57:00;95433.91;;;18.78;62.45
77889;BME280;67082;41.704;44.768;2023-06-01T00:59:29;95432.16;;;18.86;62.27
77889;BME280;67082;41.704;44.768;2023-06-01T01:01:57;95435.72;;;18.81;61.81
77889;BME280;67082;41.704;44.768;2023-06-01T01:04:25;95431.09;;;18.89;61.54
77889;BME280;67082;41.704;44.768;2023-06-01T01:07:02;95437.75;;;18.81;61.46
77889;BME280;67082;41.704;44.768;2023-06-01T01:13:03;95449.75;;;18.81;61.58
77889;BME280;67082;41.704;44.768;2023-06-01T01:18:36;95451.78;;;18.75;61.40
77889;BME280;67082;41.704;44.768;2023-06-01T01:21:04;95444.38;;;18.83;61.42
77889;BME280;67082;41.704;44.768;2023-06-01T01:29:40;95451.78;;;18.86;61.00
77889;BME280;67082;41.704;44.768;2023-06-01T01:32:10;95448.44;;;18.88;60.48
77889;BME280;67082;41.704;44.768;2023-06-01T01:34:40;95455.59;;;18.94;59.93
77889;BME280;67082;41.704;44.768;2023-06-01T01:37:10;95455.09;;;18.90;60.04
77889;BME280;67082;41.704;44.768;2023-06-01T01:39:39;95453.31;;;18.98;59.77
77889;BME280;67082;41.704;44.768;2023-06-01T01:42:07;95468.38;;;19.01;60.04
77889;BME280;67082;41.704;44.768;2023-06-01T01:44:35;95461.19;;;19.00;59.87
77889;BME280;67082;41.704;44.768;2023-06-01T01:47:14;95468.34;;;19.17;59.64
77889;BME280;67082;41.704;44.768;2023-06-01T01:49:53;95463.19;;;19.49;58.02
77889;BME280;67082;41.704;44.768;2023-06-01T01:52:33;95464.88;;;19.79;57.34
77889;BME280;67082;41.704;44.768;2023-06-01T01:55:03;95468.34;;;20.07;56.32
77889;BME280;67082;41.704;44.768;2023-06-01T01:57:34;95459.41;;;20.44;54.94
77889;BME280;67082;41.704;44.768;2023-06-01T02:00:05;95455.78;;;20.54;55.14
77889;BME280;67082;41.704;44.768;2023-06-01T02:02:44;95454.66;;;20.68;54.60
77889;BME280;67082;41.704;44.768;2023-06-01T02:05:15;95462.19;;;20.84;53.71
77889;BME280;67082;41.704;44.768;2023-06-01T02:07:44;95458.16;;;21.09;52.69
77889;BME280;67082;41.704;44.768;2023-06-01T02:10:13;95472.13;;;21.50;52.20
77889;BME280;67082;41.704;44.768;2023-06-01T02:12:42;95472.69;;;21.91;51.28
77889;BME280;67082;41.704;44.768;2023-06-01T02:15:11;95478.06;;;22.13;50.69
77889;BME280;67082;41.704;44.768;2023-06-01T02:17:39;95486.34;;;22.48;49.75
77889;BME280;67082;41.704;44.768;2023-06-01T02:20:10;95491.75;;;22.27;50.17
77889;BME280;67082;41.704;44.768;2023-06-01T02:22:39;95478.69;;;22.43;49.32
77889;BME280;67082;41.704;44.768;2023-06-01T02:25:08;95488.53;;;22.73;48.91
77889;BME280;67082;41.704;44.768;2023-06-01T02:27:36;95479.63;;;23.01;48.64
77889;BME280;67082;41.704;44.768;2023-06-01T02:30:05;95472.25;;;23.29;47.97
77889;BME280;67082;41.704;44.768;2023-06-01T02:32:33;95487.91;;;23.43;47.48
77889;BME280;67082;41.704;44.768;2023-06-01T02:35:03;95481.63;;;23.50;47.10
77889;BME280;67082;41.704;44.768;2023-06-01T02:37:31;95484.78;;;23.15;47.67
77889;BME280;67082;41.704;44.768;2023-06-01T02:40:02;95482.56;;;23.27;47.52
77889;BME280;67082;41.704;44.768;2023-06-01T02:42:30;95481.50;;;23.43;47.17
77889;BME280;67082;41.704;44.768;2023-06-01T02:45:00;95484.00;;;23.46;46.93
77889;BME280;67082;41.704;44.768;2023-06-01T02:47:30;95480.47;;;23.27;48.20
77889;BME280;67082;41.704;44.768;2023-06-01T02:49:59;95485.88;;;23.44;48.90
77889;BME280;67082;41.704;44.768;2023-06-01T02:52:28;95478.50;;;23.22;49.20
77889;BME280;67082;41.704;44.768;2023-06-01T02:54:57;95491.59;;;23.07;49.59
77889;BME280;67082;41.704;44.768;2023-06-01T02:57:45;95496.25;;;22.73;50.50
77889;BME280;67082;41.704;44.768;2023-06-01T03:00:14;95496.72;;;22.58;50.99
77889;BME280;67082;41.704;44.768;2023-06-01T03:02:49;95495.03;;;22.68;50.71
77889;BME280;67082;41.704;44.768;2023-06-01T03:05:18;95491.44;;;22.31;51.69
77889;BME280;67082;41.704;44.768;2023-06-01T03:08:09;95491.81;;;22.40;51.45
77889;BME280;67082;41.704;44.768;2023-06-01T03:10:37;95489.91;;;22.48;51.13
77889;BME280;67082;41.704;44.768;2023-06-01T03:13:15;95489.06;;;22.35;51.39
77889;BME280;67082;41.704;44.768;2023-06-01T03:15:44;95483.72;;;22.31;51.30
77889;BME280;67082;41.704;44.768;2023-06-01T03:18:12;95493.94;;;22.16;51.79
77889;BME280;67082;41.704;44.768;2023-06-01T03:20:41;95498.06;;;22.15;52.03
77889;BME280;67082;41.704;44.768;2023-06-01T03:23:09;95495.72;;;22.37;51.49
77889;BME280;67082;41.704;44.768;2023-06-01T03:25:38;95504.78;;;22.30;51.54
77889;BME280;67082;41.704;44.768;2023-06-01T03:28:09;95497.53;;;22.16;52.11
77889;BME280;67082;41.704;44.768;2023-06-01T03:30:40;95499.78;;;21.99;52.60
77889;BME280;67082;41.704;44.768;2023-06-01T03:33:10;95496.97;;;21.99;52.81
77889;BME280;67082;41.704;44.768;2023-06-01T03:35:38;95495.75;;;22.13;52.51
77889;BME280;67082;41.704;44.768;2023-06-01T03:38:06;95493.38;;;21.99;52.59
77889;BME280;67082;41.704;44.768;2023-06-01T03:40:35;95496.66;;;22.03;52.71
77889;BME280;67082;41.704;44.768;2023-06-01T03:43:03;95487.53;;;22.15;52.62
77889;BME280;67082;41.704;44.768;2023-06-01T03:45:32;95486.16;;;21.79;53.41
77889;BME280;67082;41.704;44.768;2023-06-01T03:48:00;95483.06;;;21.83;53.60
77889;BME280;67082;41.704;44.768;2023-06-01T03:50:28;95495.28;;;21.91;53.23
77889;BME280;67082;41.704;44.768;2023-06-01T03:52:59;95490.41;;;21.67;53.89
77889;BME280;67082;41.704;44.768;2023-06-01T03:55:27;95496.97;;;21.51;54.20
77889;BME280;67082;41.704;44.768;2023-06-01T03:58:03;95498.22;;;21.26;54.96
77889;BME280;67082;41.704;44.768;2023-06-01T04:00:33;95486.13;;;21.31;55.14
77889;BME280;67082;41.704;44.768;2023-06-01T04:03:03;95496.59;;;21.60;54.78
77889;BME280;67082;41.704;44.768;2023-06-01T04:05:36;95483.03;;;21.35;55.08
77889;BME280;67082;41.704;44.768;2023-06-01T04:08:15;95496.66;;;21.31;55.27
77889;BME280;67082;41.704;44.768;2023-06-01T04:10:44;95483.19;;;21.18;55.57
77889;BME280;67082;41.704;44.768;2023-06-01T04:13:13;95478.06;;;21.46;55.10
77889;BME280;67082;41.704;44.768;2023-06-01T04:15:41;95474.47;;;21.46;54.77
77889;BME280;67082;41.704;44.768;2023-06-01T04:18:09;95486.53;;;21.17;55.41
77889;BME280;67082;41.704;44.768;2023-06-01T04:21:04;95492.69;;;21.15;55.56
77889;BME280;67082;41.704;44.768;2023-06-01T04:23:33;95479.91;;;21.38;55.82
77889;BME280;67082;41.704;44.768;2023-06-01T04:26:02;95473.00;;;21.63;54.16
77889;BME280;67082;41.704;44.768;2023-06-01T04:28:32;95479.66;;;21.66;54.51
77889;BME280;67082;41.704;44.768;2023-06-01T04:31:02;95470.66;;;21.91;53.44
77889;BME280;67082;41.704;44.768;2023-06-01T04:33:30;95475.25;;;21.70;51.60
77889;BME280;67082;41.704;44.768;2023-06-01T04:35:59;95483.22;;;21.90;51.00
77889;BME280;67082;41.704;44.768;2023-06-01T04:38:31;95468.28;;;21.95;50.60
77889;BME280;67082;41.704;44.768;2023-06-01T04:41:01;95471.78;;;22.01;50.16
77889;BME280;67082;41.704;44.768;2023-06-01T04:43:29;95466.16;;;22.01;50.14
77889;BME280;67082;41.704;44.768;2023-06-01T04:45:58;95467.22;;;21.98;50.37
77889;BME280;67082;41.704;44.768;2023-06-01T04:48:32;95472.88;;;21.98;50.11
77889;BME280;67082;41.704;44.768;2023-06-01T04:51:02;95472.19;;;21.92;50.38
77889;BME280;67082;41.704;44.768;2023-06-01T04:53:32;95475.88;;;21.82;50.63
77889;BME280;67082;41.704;44.768;2023-06-01T04:56:01;95471.94;;;21.66;50.99
77889;BME280;67082;41.704;44.768;2023-06-01T04:58:29;95478.06;;;21.70;50.81
77889;BME280;67082;41.704;44.768;2023-06-01T05:00:57;95468.53;;;21.73;50.77
77889;BME280;67082;41.704;44.768;2023-06-01T05:03:25;95455.81;;;21.85;51.03
77889;BME280;67082;41.704;44.768;2023-06-01T05:05:54;95466.66;;;21.81;50.85
77889;BME280;67082;41.704;44.768;2023-06-01T05:08:27;95464.44;;;21.74;51.07
77889;BME280;67082;41.704;44.768;2023-06-01T05:10:56;95456.56;;;21.91;50.84
77889;BME280;67082;41.704;44.768;2023-06-01T05:13:24;95447.84;;;21.89;50.83
77889;BME280;67082;41.704;44.768;2023-06-01T05:15:52;95453.66;;;21.97;50.80
77889;BME280;67082;41.704;44.768;2023-06-01T05:18:21;95453.31;;;21.82;50.64
77889;BME280;67082;41.704;44.768;2023-06-01T05:20:49;95443.09;;;21.79;50.63
77889;BME280;67082;41.704;44.768;2023-06-01T05:23:17;95433.69;;;21.71;51.09
77889;BME280;67082;41.704;44.768;2023-06-01T05:25:47;95437.69;;;21.81;50.88
77889;BME280;67082;41.704;44.768;2023-06-01T05:28:15;95431.44;;;21.64;51.56
77889;BME280;67082;41.704;44.768;2023-06-01T05:30:43;95430.69;;;21.63;51.33
77889;BME280;67082;41.704;44.768;2023-06-01T05:33:12;95428.53;;;21.75;51.35
77889;BME280;67082;41.704;44.768;2023-06-01T05:35:40;95425.88;;;21.82;51.12
77889;BME280;67082;41.704;44.768;2023-06-01T05:38:12;95418.13;;;21.64;51.52
77889;BME280;67082;41.704;44.768;2023-06-01T05:40:41;95424.78;;;21.85;51.32
77889;BME280;67082;41.704;44.768;2023-06-01T05:43:09;95423.41;;;21.73;51.28
77889;BME280;67082;41.704;44.768;2023-06-01T05:45:37;95417.78;;;21.73;51.38
77889;BME280;67082;41.704;44.768;2023-06-01T05:48:06;95431.03;;;21.78;51.32
77889;BME280;67082;41.704;44.768;2023-06-01T05:50:34;95406.81;;;21.88;51.87
77889;BME280;67082;41.704;44.768;2023-06-01T05:53:02;95419.00;;;21.96;51.15
77889;BME280;67082;41.704;44.768;2023-06-01T05:55:34;95395.06;;;22.03;51.56
77889;BME280;67082;41.704;44.768;2023-06-01T05:58:02;95406.28;;;22.08;51.67
77889;BME280;67082;41.704;44.768;2023-06-01T06:00:30;95406.28;;;22.08;52.02
77889;BME280;67082;41.704;44.768;2023-06-01T06:02:58;95398.28;;;22.12;51.75
77889;BME280;67082;41.704;44.768;2023-06-01T06:05:27;95402.72;;;22.26;51.59
77889;BME280;67082;41.704;44.768;2023-06-01T06:07:56;95408.34;;;22.26;51.12
77889;BME280;67082;41.704;44.768;2023-06-01T06:10:24;95417.56;;;22.08;51.56
77889;BME280;67082;41.704;44.768;2023-06-01T06:12:52;95414.22;;;21.91;52.16
77889;BME280;67082;41.704;44.768;2023-06-01T06:15:21;95410.34;;;22.13;52.11
77889;BME280;67082;41.704;44.768;2023-06-01T06:17:49;95402.88;;;22.15;51.47
77889;BME280;67082;41.704;44.768;2023-06-01T06:20:17;95412.38;;;22.12;51.71
77889;BME280;67082;41.704;44.768;2023-06-01T06:22:50;95408.03;;;22.11;50.62
77889;BME280;67082;41.704;44.768;2023-06-01T06:25:19;95393.56;;;22.20;51.07
77889;BME280;67082;41.704;44.768;2023-06-01T06:27:48;95394.44;;;22.28;51.51
77889;BME280;67082;41.704;44.768;2023-06-01T06:30:17;95403.16;;;22.30;51.52
77889;BME280;67082;41.704;44.768;2023-06-01T06:32:44;95406.53;;;22.29;51.37
77889;BME280;67082;41.704;44.768;2023-06-01T06:35:13;95408.09;;;22.24;51.75
77889;BME280;67082;41.704;44.768;2023-06-01T06:37:44;95410.97;;;22.06;52.00
77889;BME280;67082;41.704;44.768;2023-06-01T06:40:12;95409.56;;;22.12;52.20
77889;BME280;67082;41.704;44.768;2023-06-01T06:42:41;95404.84;;;22.02;52.60
77889;BME280;67082;41.704;44.768;2023-06-01T06:45:10;95405.31;;;22.06;52.63
77889;BME280;67082;41.704;44.768;2023-06-01T06:47:38;95410.88;;;22.11;52.40
77889;BME280;67082;41.704;44.768;2023-06-01T06:50:06;95399.28;;;22.15;52.77
77889;BME280;67082;41.704;44.768;2023-06-01T06:52:35;95391.56;;;22.15;52.87
77889;BME280;67082;41.704;44.768;2023-06-01T06:55:03;95395.81;;;22.22;52.74
77889;BME280;67082;41.704;44.768;2023-06-01T06:57:32;95396.81;;;22.24;52.88
77889;BME280;67082;41.704;44.768;2023-06-01T07:00:02;95399.63;;;22.43;52.98
77889;BME280;67082;41.704;44.768;2023-06-01T07:02:31;95399.16;;;22.57;52.11
77889;BME280;67082;41.704;44.768;2023-06-01T07:05:00;95415.22;;;22.49;52.27
77889;BME280;67082;41.704;44.768;2023-06-01T07:07:29;95403.63;;;22.53;52.39
77889;BME280;67082;41.704;44.768;2023-06-01T07:09:57;95382.69;;;22.61;51.82
77889;BME280;67082;41.704;44.768;2023-06-01T07:12:26;95381.16;;;22.60;51.87
77889;BME280;67082;41.704;44.768;2023-06-01T07:14:56;95381.16;;;22.60;51.42
77889;BME280;67082;41.704;44.768;2023-06-01T07:17:24;95400.28;;;22.67;51.32
77889;BME280;67082;41.704;44.768;2023-06-01T07:19:52;95376.84;;;22.72;51.16
77889;BME280;67082;41.704;44.768;2023-06-01T07:37:52;95385.09;;;22.70;50.52
77889;BME280;67082;41.704;44.768;2023-06-01T07:53:42;95378.66;;;23.14;49.06
77889;BME280;67082;41.704;44.768;2023-06-01T07:56:13;95357.28;;;23.19;49.32
77889;BME280;67082;41.704;44.768;2023-06-01T07:58:41;95398.25;;;23.12;49.02
77889;BME280;67082;41.704;44.768;2023-06-01T08:01:11;95370.38;;;23.03;49.45
77889;BME280;67082;41.704;44.768;2023-06-01T08:03:42;95367.06;;;23.18;49.15
77889;BME280;67082;41.704;44.768;2023-06-01T08:06:11;95375.22;;;23.21;48.34
77889;BME280;67082;41.704;44.768;2023-06-01T08:08:40;95360.00;;;23.24;49.01
77889;BME280;67082;41.704;44.768;2023-06-01T08:11:10;95365.13;;;23.39;49.44
77889;BME280;67082;41.704;44.768;2023-06-01T08:13:39;95367.28;;;23.46;48.63
77889;BME280;67082;41.704;44.768;2023-06-01T08:16:12;95350.19;;;23.51;48.55
77889;BME280;67082;41.704;44.768;2023-06-01T08:18:43;95361.19;;;23.55;48.53
77889;BME280;67082;41.704;44.768;2023-06-01T08:21:12;95356.28;;;23.55;48.13
77889;BME280;67082;41.704;44.768;2023-06-01T08:23:40;95346.50;;;23.56;48.31
77889;BME280;67082;41.704;44.768;2023-06-01T08:26:09;95333.25;;;23.38;48.49
77889;BME280;67082;41.704;44.768;2023-06-01T08:28:37;95349.75;;;23.34;47.92
77889;BME280;67082;41.704;44.768;2023-06-01T08:31:06;95337.47;;;23.32;47.44
77889;BME280;67082;41.704;44.768;2023-06-01T08:33:34;95337.16;;;23.48;47.71
77889;BME280;67082;41.704;44.768;2023-06-01T08:36:03;95327.59;;;23.38;47.29
77889;BME280;67082;41.704;44.768;2023-06-01T08:38:31;95332.78;;;23.60;47.22
77889;BME280;67082;41.704;44.768;2023-06-01T08:41:04;95329.09;;;23.65;47.34
77889;BME280;67082;41.704;44.768;2023-06-01T08:43:37;95320.13;;;23.74;47.99
77889;BME280;67082;41.704;44.768;2023-06-01T08:49:18;95318.72;;;23.81;46.14
77889;BME280;67082;41.704;44.768;2023-06-01T08:57:29;95312.28;;;23.93;45.78
77889;BME280;67082;41.704;44.768;2023-06-01T09:08:09;95273.41;;;24.27;45.95
77889;BME280;67082;41.704;44.768;2023-06-01T09:10:38;95299.44;;;24.26;45.45
77889;BME280;67082;41.704;44.768;2023-06-01T09:13:06;95283.69;;;24.38;45.10
77889;BME280;67082;41.704;44.768;2023-06-01T09:15:34;95277.41;;;24.52;45.37
77889;BME280;67082;41.704;44.768;2023-06-01T09:18:07;95289.44;;;24.45;45.70
77889;BME280;67082;41.704;44.768;2023-06-01T09:20:36;95269.78;;;24.47;45.18
77889;BME280;67082;41.704;44.768;2023-06-01T09:23:06;95276.84;;;24.54;44.11
77889;BME280;67082;41.704;44.768;2023-06-01T09:25:35;95296.00;;;24.61;43.59
77889;BME280;67082;41.704;44.768;2023-06-01T09:28:02;95289.38;;;24.58;44.17
77889;BME280;67082;41.704;44.768;2023-06-01T09:30:42;95275.72;;;24.57;44.24
77889;BME280;67082;41.704;44.768;2023-06-01T09:33:15;95288.31;;;24.48;44.91
77889;BME280;67082;41.704;44.768;2023-06-01T09:35:48;95285.78;;;24.58;44.49
77889;BME280;67082;41.704;44.768;2023-06-01T09:38:24;95306.56;;;24.60;44.94
77889;BME280;67082;41.704;44.768;2023-06-01T09:40:57;95303.69;;;24.73;45.22
77889;BME280;67082;41.704;44.768;2023-06-01T09:43:27;95278.03;;;24.79;45.31
77889;BME280;67082;41.704;44.768;2023-06-01T09:46:11;95280.69;;;24.84;44.33
77889;BME280;67082;41.704;44.768;2023-06-01T09:48:41;95298.00;;;24.73;44.88
77889;BME280;67082;41.704;44.768;2023-06-01T09:51:25;95297.19;;;24.65;45.59
77889;BME280;67082;41.704;44.768;2023-06-01T09:54:01;95309.88;;;24.51;46.77
77889;BME280;67082;41.704;44.768;2023-06-01T09:56:51;95296.88;;;24.35;47.17
77889;BME280;67082;41.704;44.768;2023-06-01T09:59:43;95308.91;;;24.28;47.98
77889;BME280;67082;41.704;44.768;2023-06-01T10:04:47;95308.03;;;24.20;48.73
77889;BME280;67082;41.704;44.768;2023-06-01T10:07:17;95321.84;;;24.24;48.72
77889;BME280;67082;41.704;44.768;2023-06-01T10:09:51;95326.50;;;24.01;49.40
77889;BME280;67082;41.704;44.768;2023-06-01T10:12:20;95321.00;;;23.95;49.53
77889;BME280;67082;41.704;44.768;2023-06-01T10:14:50;95317.22;;;23.67;50.98
77889;BME280;67082;41.704;44.768;2023-06-01T10:17:19;95311.88;;;23.63;50.68
77889;BME280;67082;41.704;44.768;2023-06-01T10:19:47;95318.00;;;23.54;51.62
77889;BME280;67082;41.704;44.768;2023-06-01T10:22:16;95320.38;;;23.50;52.22
77889;BME280;67082;41.704;44.768;2023-06-01T10:24:44;95306.91;;;23.56;51.83
77889;BME280;67082;41.704;44.768;2023-06-01T10:27:29;95310.81;;;23.53;49.85
77889;BME280;67082;41.704;44.768;2023-06-01T10:30:01;95309.41;;;23.47;48.85
77889;BME280;67082;41.704;44.768;2023-06-01T10:35:08;95307.13;;;23.45;47.86
77889;BME280;67082;41.704;44.768;2023-06-01T10:37:38;95317.59;;;23.37;48.21
77889;BME280;67082;41.704;44.768;2023-06-01T10:40:24;95316.34;;;23.07;51.93
77889;BME280;67082;41.704;44.768;2023-06-01T10:42:54;95314.72;;;22.98;54.90
77889;BME280;67082;41.704;44.768;2023-06-01T10:48:11;95322.06;;;22.62;60.48
77889;BME280;67082;41.704;44.768;2023-06-01T10:50:41;95318.78;;;22.58;58.87
77889;BME280;67082;41.704;44.768;2023-06-01T10:53:30;95299.13;;;22.53;57.13
77889;BME280;67082;41.704;44.768;2023-06-01T10:56:23;95300.44;;;22.33;59.28
77889;BME280;67082;41.704;44.768;2023-06-01T11:01:45;95300.72;;;22.48;59.18
77889;BME280;67082;41.704;44.768;2023-06-01T11:04:14;95299.34;;;22.55;61.05
77889;BME280;67082;41.704;44.768;2023-06-01T11:06:42;95294.28;;;22.92;63.35
77889;BME280;67082;41.704;44.768;2023-06-01T11:09:12;95296.16;;;23.16;62.54
77889;BME280;67082;41.704;44.768;2023-06-01T11:14:24;95295.59;;;23.56;59.49
77889;BME280;67082;41.704;44.768;2023-06-01T11:16:53;95289.25;;;23.63;57.27
77889;BME280;67082;41.704;44.768;2023-06-01T11:19:27;95293.19;;;23.60;58.56
77889;BME280;67082;41.704;44.768;2023-06-01T11:21:59;95285.69;;;23.63;56.14
77889;BME280;67082;41.704;44.768;2023-06-01T11:24:36;95292.41;;;23.73;56.87
77889;BME280;67082;41.704;44.768;2023-06-01T11:27:06;95291.94;;;23.82;58.21
77889;BME280;67082;41.704;44.768;2023-06-01T11:29:36;95283.78;;;23.78;55.80
77889;BME280;67082;41.704;44.768;2023-06-01T11:32:05;95280.13;;;23.70;51.08
77889;BME280;67082;41.704;44.768;2023-06-01T11:34:36;95287.25;;;23.84;53.44
77889;BME280;67082;41.704;44.768;2023-06-01T11:37:16;95282.25;;;23.90;48.93
77889;BME280;67082;41.704;44.768;2023-06-01T11:39:48;95279.59;;;24.05;51.07
77889;BME280;67082;41.704;44.768;2023-06-01T11:42:19;95276.97;;;24.07;50.31
77889;BME280;67082;41.704;44.768;2023-06-01T11:44:58;95275.09;;;24.10;48.88
77889;BME280;67082;41.704;44.768;2023-06-01T11:47:30;95272.13;;;24.15;50.29
77889;BME280;67082;41.704;44.768;2023-06-01T11:49:59;95263.78;;;24.30;49.60
77889;BME280;67082;41.704;44.768;2023-06-01T11:52:28;95270.50;;;24.40;48.40
77889;BME280;67082;41.704;44.768;2023-06-01T11:55:08;95274.75;;;24.34;47.03
77889;BME280;67082;41.704;44.768;2023-06-01T11:57:40;95282.16;;;24.37;47.22
77889;BME280;67082;41.704;44.768;2023-06-01T12:00:12;95285.28;;;24.46;47.38
77889;BME280;67082;41.704;44.768;2023-06-01T12:02:41;95278.75;;;24.38;47.53
77889;BME280;67082;41.704;44.768;2023-06-01T12:05:11;95277.25;;;24.37;46.49
77889;BME280;67082;41.704;44.768;2023-06-01T12:07:46;95273.59;;;24.50;50.28
77889;BME280;67082;41.704;44.768;2023-06-01T12:10:17;95267.16;;;24.49;50.82
77889;BME280;67082;41.704;44.768;2023-06-01T12:12:48;95256.69;;;24.57;51.11
77889;BME280;67082;41.704;44.768;2023-06-01T12:15:18;95251.06;;;24.85;51.72
77889;BME280;67082;41.704;44.768;2023-06-01T12:17:51;95246.66;;;25.05;51.45
77889;BME280;67082;41.704;44.768;2023-06-01T12:20:36;95235.81;;;24.96;50.77
77889;BME280;67082;41.704;44.768;2023-06-01T12:25:58;95227.53;;;25.05;49.55
77889;BME280;67082;41.704;44.768;2023-06-01T12:28:50;95216.66;;;25.17;49.71
77889;BME280;67082;41.704;44.768;2023-06-01T12:31:27;95224.81;;;25.20;48.36
77889;BME280;67082;41.704;44.768;2023-06-01T12:33:55;95211.59;;;25.23;48.26
77889;BME280;67082;41.704;44.768;2023-06-01T12:36:34;95228.06;;;25.24;48.29
77889;BME280;67082;41.704;44.768;2023-06-01T12:39:03;95218.63;;;25.29;48.05
77889;BME280;67082;41.704;44.768;2023-06-01T12:41:33;95220.50;;;25.27;47.42
77889;BME280;67082;41.704;44.768;2023-06-01T12:44:01;95223.56;;;25.29;47.70
77889;BME280;67082;41.704;44.768;2023-06-01T12:46:30;95223.34;;;25.27;48.01
77889;BME280;67082;41.704;44.768;2023-06-01T12:49:14;95222.47;;;25.11;48.37
77889;BME280;67082;41.704;44.768;2023-06-01T12:51:43;95218.25;;;24.97;48.99
77889;BME280;67082;41.704;44.768;2023-06-01T12:54:12;95224.00;;;24.84;49.52
77889;BME280;67082;41.704;44.768;2023-06-01T12:56:41;95229.66;;;24.84;49.25
77889;BME280;67082;41.704;44.768;2023-06-01T12:59:09;95238.50;;;24.73;49.55
77889;BME280;67082;41.704;44.768;2023-06-01T13:01:38;95240.72;;;24.67;49.70
77889;BME280;67082;41.704;44.768;2023-06-01T13:04:07;95254.56;;;24.78;50.21
77889;BME280;67082;41.704;44.768;2023-06-01T13:06:36;95249.25;;;24.75;50.41
77889;BME280;67082;41.704;44.768;2023-06-01T13:09:05;95261.09;;;24.66;50.46
77889;BME280;67082;41.704;44.768;2023-06-01T13:11:35;95256.41;;;24.68;50.29
77889;BME280;67082;41.704;44.768;2023-06-01T13:14:03;95259.44;;;24.70;50.65
77889;BME280;67082;41.704;44.768;2023-06-01T13:16:32;95245.28;;;24.70;50.32
77889;BME280;67082;41.704;44.768;2023-06-01T13:19:00;95257.22;;;24.56;49.45
77889;BME280;67082;41.704;44.768;2023-06-01T13:21:29;95252.31;;;24.56;49.86
77889;BME280;67082;41.704;44.768;2023-06-01T13:23:57;95263.97;;;24.53;49.71
77889;BME280;67082;41.704;44.768;2023-06-01T13:26:25;95255.38;;;24.58;50.65
77889;BME280;67082;41.704;44.768;2023-06-01T13:28:54;95251.53;;;24.56;49.33
77889;BME280;67082;41.704;44.768;2023-06-01T13:31:23;95260.03;;;24.56;49.56
77889;BME280;67082;41.704;44.768;2023-06-01T13:33:51;95263.09;;;24.58;49.73
77889;BME280;67082;41.704;44.768;2023-06-01T13:36:19;95281.19;;;24.55;49.42
77889;BME280;67082;41.704;44.768;2023-06-01T13:38:47;95284.84;;;24.42;48.77
77889;BME280;67082;41.704;44.768;2023-06-01T13:41:15;95284.84;;;24.42;49.51
77889;BME280;67082;41.704;44.768;2023-06-01T13:43:43;95275.38;;;24.40;49.50
77889;BME280;67082;41.704;44.768;2023-06-01T13:46:12;95281.41;;;24.36;49.52
77889;BME280;67082;41.704;44.768;2023-06-01T13:48:40;95278.44;;;24.42;49.77
77889;BME280;67082;41.704;44.768;2023-06-01T13:51:08;95295.09;;;24.45;49.59
77889;BME280;67082;41.704;44.768;2023-06-01T13:53:36;95291.28;;;24.43;49.38
77889;BME280;67082;41.704;44.768;2023-06-01T13:56:04;95286.09;;;24.34;49.56
77889;BME280;67082;41.704;44.768;2023-06-01T13:58:32;95291.84;;;24.41;49.40
77889;BME280;67082;41.704;44.768;2023-06-01T14:01:02;95308.91;;;24.28;48.04
77889;BME280;67082;41.704;44.768;2023-06-01T14:03:32;95298.84;;;24.07;47.43
77889;BME280;67082;41.704;44.768;2023-06-01T14:06:01;95307.81;;;23.98;48.22
77889;BME280;67082;41.704;44.768;2023-06-01T14:08:29;95318.38;;;23.84;48.29
77889;BME280;67082;41.704;44.768;2023-06-01T14:10:57;95317.75;;;23.78;48.67
77889;BME280;67082;41.704;44.768;2023-06-01T14:13:25;95317.53;;;23.76;48.99
77889;BME280;67082;41.704;44.768;2023-06-01T14:15:53;95311.53;;;23.80;49.01
77889;BME280;67082;41.704;44.768;2023-06-01T14:18:21;95319.38;;;23.74;49.60
77889;BME280;67082;41.704;44.768;2023-06-01T14:20:49;95321.78;;;23.70;50.17
77889;BME280;67082;41.704;44.768;2023-06-01T14:23:18;95316.91;;;23.70;50.22